Terminal Aerodrome Forecast
Issued by NWS Mt. Holly, NJ

Home | Current Version | Previous Version | Text Only | Print | Product List | Glossary On
Versions: 1 2 3 4 5 6 7 8 9 10 11 12 13 14 15 16 17 18 19 20 21 22 23 24 25 26 27 28 29
000
FTUS41 KPHI 050337 AAA
TAFPHL
TAF AMD
KPHL 050337Z 0504/0606 07008KT P6SM BKN022
     FM050700 06008KT P6SM BKN015
     FM051300 07011KT P6SM FEW020 SCT050
     FM051900 11008KT P6SM SCT050=

USA.gov is the U.S. government's official web portal to all federal, state and local government web resources and services.